Time;durP1;ratioP1;P1;durP2;ratioP2;P2;SDS_P1;SDS_P2;PMS_P1;PMS_P2;Temp;Humidity;BMP_temperature;BMP_pressure;BME280_temperature;BME280_humidity;BME280_pressure;Samples;Min_cycle;Max_cycle;Signal;HPM_P1;HPM_P2
2023/12/14 00:00:23;;;;;;;0.57;0.57;;;;;;;;;;5021056;28;20077;-67
2023/12/14 00:02:49;;;;;;;0.52;0.52;;;;;;;;;;5022098;28;20049;-65
2023/12/14 00:05:14;;;;;;;3.85;0.70;;;;;;;;;;5019856;28;20045;-66
2023/12/14 00:07:39;;;;;;;1.00;0.98;;;;;;;;;;5021919;28;20092;-69
2023/12/14 00:10:05;;;;;;;0.70;0.70;;;;;;;;;;5020772;28;20049;-66
2023/12/14 00:12:31;;;;;;;1.77;0.90;;;;;;;;;;5022578;28;20048;-66
2023/12/14 00:14:56;;;;;;;0.40;0.40;;;;;;;;;;5019877;28;20045;-69
2023/12/14 00:17:22;;;;;;;0.50;0.50;;;;;;;;;;5022157;28;20053;-69
2023/12/14 00:19:47;;;;;;;0.50;0.50;;;;;;;;;;5020274;28;20041;-66
2023/12/14 00:22:13;;;;;;;0.52;0.52;;;;;;;;;;5021801;28;20550;-67
2023/12/14 00:24:38;;;;;;;0.50;0.50;;;;;;;;;;5020315;28;20915;-68
2023/12/14 00:27:04;;;;;;;0.60;0.60;;;;;;;;;;5021215;28;20049;-67
2023/12/14 00:29:29;;;;;;;0.50;0.50;;;;;;;;;;5020890;28;20736;-67
2023/12/14 00:31:54;;;;;;;0.73;0.70;;;;;;;;;;5019867;28;20751;-67
2023/12/14 00:34:20;;;;;;;0.63;0.63;;;;;;;;;;5023101;28;20061;-67
2023/12/14 00:36:45;;;;;;;1.42;0.70;;;;;;;;;;5020701;28;20082;-67
2023/12/14 00:39:11;;;;;;;0.63;0.55;;;;;;;;;;5020579;28;20041;-67
2023/12/14 00:41:36;;;;;;;0.77;0.77;;;;;;;;;;5019763;28;20557;-67
2023/12/14 00:44:02;;;;;;;1.05;0.60;;;;;;;;;;5021059;28;20048;-67
2023/12/14 00:46:27;;;;;;;0.47;0.40;;;;;;;;;;5020526;28;20041;-67
2023/12/14 00:48:52;;;;;;;0.60;0.60;;;;;;;;;;5021354;28;20469;-67
2023/12/14 00:51:18;;;;;;;0.50;0.50;;;;;;;;;;5019303;28;20045;-67
2023/12/14 00:53:43;;;;;;;0.70;0.70;;;;;;;;;;5020223;28;20041;-67
2023/12/14 00:56:09;;;;;;;0.70;0.70;;;;;;;;;;5020825;28;20041;-67
2023/12/14 00:58:34;;;;;;;2.80;0.77;;;;;;;;;;5021047;28;20107;-67
2023/12/14 01:01:00;;;;;;;0.73;0.73;;;;;;;;;;5019319;28;20563;-67
2023/12/14 01:03:25;;;;;;;0.55;0.55;;;;;;;;;;5020355;28;20128;-67
2023/12/14 01:05:50;;;;;;;0.65;0.65;;;;;;;;;;5020218;28;20057;-67
2023/12/14 01:08:16;;;;;;;0.60;0.60;;;;;;;;;;5020926;28;20045;-67
2023/12/14 01:10:42;;;;;;;1.70;0.60;;;;;;;;;;5020126;28;20052;-67
2023/12/14 01:13:07;;;;;;;1.00;0.90;;;;;;;;;;5020942;28;20041;-68
2023/12/14 01:15:33;;;;;;;0.85;0.85;;;;;;;;;;5019915;28;20041;-67
2023/12/14 01:17:58;;;;;;;0.52;0.52;;;;;;;;;;5020445;28;20116;-67
2023/12/14 01:20:24;;;;;;;0.70;0.70;;;;;;;;;;5021344;28;20048;-67
2023/12/14 01:22:49;;;;;;;0.73;0.73;;;;;;;;;;5019904;28;20041;-67
2023/12/14 01:25:14;;;;;;;0.75;0.75;;;;;;;;;;5019115;28;20045;-67
2023/12/14 01:27:40;;;;;;;1.10;0.85;;;;;;;;;;5022322;28;20052;-65
2023/12/14 01:30:06;;;;;;;0.60;0.60;;;;;;;;;;5009354;28;20049;-66
2023/12/14 01:32:31;;;;;;;0.98;0.75;;;;;;;;;;5022379;28;20048;-66
2023/12/14 01:34:57;;;;;;;0.85;0.80;;;;;;;;;;5020490;28;20462;-72
2023/12/14 01:37:22;;;;;;;0.98;0.60;;;;;;;;;;5020269;28;20067;-65
2023/12/14 01:39:47;;;;;;;0.90;0.90;;;;;;;;;;5022845;28;20877;-66
2023/12/14 01:42:13;;;;;;;0.77;0.77;;;;;;;;;;5020222;28;20068;-67
2023/12/14 01:44:39;;;;;;;1.02;1.00;;;;;;;;;;5019013;28;20398;-67
2023/12/14 01:47:04;;;;;;;0.80;0.80;;;;;;;;;;5022515;28;20041;-67
2023/12/14 01:49:29;;;;;;;1.55;0.75;;;;;;;;;;5018654;28;20049;-65
2023/12/14 01:51:55;;;;;;;0.52;0.52;;;;;;;;;;5019062;28;20056;-67
2023/12/14 01:54:20;;;;;;;0.73;0.73;;;;;;;;;;5019889;28;20033;-66
2023/12/14 01:56:46;;;;;;;1.10;1.00;;;;;;;;;;5023387;28;20100;-65
2023/12/14 01:59:11;;;;;;;1.25;1.00;;;;;;;;;;5019516;28;20041;-67
2023/12/14 02:01:46;;;;;;;1.17;1.10;;;;;;;;;;5001233;28;20137;-67
2023/12/14 02:04:13;;;;;;;1.02;1.02;;;;;;;;;;5019659;28;20041;-67
2023/12/14 02:06:38;;;;;;;0.73;0.70;;;;;;;;;;5019625;28;20048;-67
2023/12/14 02:09:04;;;;;;;0.90;0.90;;;;;;;;;;5023756;28;20506;-70
2023/12/14 02:11:30;;;;;;;2.63;1.38;;;;;;;;;;5020491;28;20107;-67
2023/12/14 02:13:55;;;;;;;0.90;0.90;;;;;;;;;;5022162;28;20038;-65
2023/12/14 02:16:20;;;;;;;0.90;0.90;;;;;;;;;;5019445;28;20068;-67
2023/12/14 02:18:46;;;;;;;1.30;1.20;;;;;;;;;;5021454;28;20045;-66
2023/12/14 02:21:11;;;;;;;1.02;1.00;;;;;;;;;;5018326;28;20068;-66
2023/12/14 02:23:46;;;;;;;3.03;1.05;;;;;;;;;;5018668;28;20057;-66
2023/12/14 02:26:14;;;;;;;0.85;0.85;;;;;;;;;;5019626;28;20438;-64
2023/12/14 02:28:40;;;;;;;1.38;0.90;;;;;;;;;;5018157;28;20052;-63
2023/12/14 02:31:06;;;;;;;0.90;0.90;;;;;;;;;;5018235;28;20049;-67
2023/12/14 02:33:31;;;;;;;0.65;0.65;;;;;;;;;;5023772;28;20080;-66
2023/12/14 02:35:56;;;;;;;0.65;0.65;;;;;;;;;;5019396;28;20694;-66
2023/12/14 02:38:22;;;;;;;1.15;1.05;;;;;;;;;;5018826;28;20072;-65
2023/12/14 02:40:50;;;;;;;0.93;0.80;;;;;;;;;;5018778;28;20127;-65
2023/12/14 02:43:15;;;;;;;0.70;0.70;;;;;;;;;;5019989;28;20119;-66
2023/12/14 02:45:41;;;;;;;2.28;0.82;;;;;;;;;;5017977;28;20053;-67
2023/12/14 02:48:06;;;;;;;1.05;0.90;;;;;;;;;;5019362;28;20057;-68
2023/12/14 02:50:31;;;;;;;0.82;0.70;;;;;;;;;;5018127;28;20894;-67
2023/12/14 02:52:57;;;;;;;0.50;0.50;;;;;;;;;;5018318;28;20590;-70
2023/12/14 02:55:22;;;;;;;0.57;0.57;;;;;;;;;;5017738;28;20144;-67
2023/12/14 02:57:47;;;;;;;0.95;0.90;;;;;;;;;;5018117;28;20134;-69
2023/12/14 03:00:13;;;;;;;0.80;0.80;;;;;;;;;;5016403;28;20052;-67
2023/12/14 03:02:39;;;;;;;1.27;0.90;;;;;;;;;;5018883;28;20064;-68
2023/12/14 03:05:04;;;;;;;1.40;1.30;;;;;;;;;;5016723;28;20187;-66
2023/12/14 03:07:30;;;;;;;1.08;0.98;;;;;;;;;;5019234;28;20053;-67
2023/12/14 03:09:55;;;;;;;0.80;0.80;;;;;;;;;;5017406;28;20053;-67
2023/12/14 03:12:20;;;;;;;0.75;0.70;;;;;;;;;;5018762;28;20065;-67
2023/12/14 03:14:46;;;;;;;0.80;0.80;;;;;;;;;;5017508;28;21112;-67
2023/12/14 03:17:15;;;;;;;0.90;0.90;;;;;;;;;;5018044;28;20054;-67
2023/12/14 03:19:40;;;;;;;0.95;0.95;;;;;;;;;;5007928;28;20602;-67
2023/12/14 03:22:06;;;;;;;1.10;1.10;;;;;;;;;;5018112;28;20064;-67
2023/12/14 03:24:31;;;;;;;1.10;1.10;;;;;;;;;;5018441;28;20054;-68
2023/12/14 03:26:57;;;;;;;1.10;1.10;;;;;;;;;;5017321;28;20068;-66
2023/12/14 03:29:22;;;;;;;1.38;1.05;;;;;;;;;;5018101;28;20045;-68
2023/12/14 03:31:47;;;;;;;1.35;1.10;;;;;;;;;;5017672;28;20087;-66
2023/12/14 03:34:13;;;;;;;1.20;1.10;;;;;;;;;;5018304;28;20403;-68
2023/12/14 03:36:38;;;;;;;1.40;1.30;;;;;;;;;;5017741;28;20076;-66
2023/12/14 03:39:04;;;;;;;1.13;0.95;;;;;;;;;;5023342;28;20152;-68
2023/12/14 03:41:29;;;;;;;1.38;1.27;;;;;;;;;;5017696;28;20095;-68
2023/12/14 03:43:55;;;;;;;1.40;1.30;;;;;;;;;;5017406;28;20046;-68
2023/12/14 03:46:20;;;;;;;0.80;0.80;;;;;;;;;;5019998;28;20136;-68
2023/12/14 03:48:45;;;;;;;1.40;1.30;;;;;;;;;;5018111;28;20049;-67
2023/12/14 03:51:11;;;;;;;1.20;1.20;;;;;;;;;;5017120;28;20079;-67
2023/12/14 03:53:36;;;;;;;1.75;1.65;;;;;;;;;;5021753;28;20058;-67
2023/12/14 03:56:02;;;;;;;3.92;1.50;;;;;;;;;;5017832;28;20539;-66
2023/12/14 03:58:27;;;;;;;1.60;1.50;;;;;;;;;;5018436;28;20041;-66
2023/12/14 04:00:52;;;;;;;1.40;1.30;;;;;;;;;;5019916;28;20046;-67
2023/12/14 04:03:19;;;;;;;1.80;1.70;;;;;;;;;;5019247;28;20524;-65
2023/12/14 04:05:44;;;;;;;1.50;1.40;;;;;;;;;;5017113;28;20057;-65
2023/12/14 04:08:10;;;;;;;1.92;1.83;;;;;;;;;;5017452;28;20055;-65
2023/12/14 04:10:35;;;;;;;1.60;1.50;;;;;;;;;;5016923;28;20498;-67
2023/12/14 04:13:01;;;;;;;3.35;2.10;;;;;;;;;;5016336;28;20056;-66
2023/12/14 04:15:26;;;;;;;1.75;1.65;;;;;;;;;;5030885;28;20627;-65
2023/12/14 04:17:52;;;;;;;3.15;2.85;;;;;;;;;;5033097;28;20128;-66
2023/12/14 04:20:17;;;;;;;3.13;2.45;;;;;;;;;;5033817;28;20041;-66
2023/12/14 04:22:46;;;;;;;2.53;2.33;;;;;;;;;;5034454;28;20542;-66
2023/12/14 04:25:11;;;;;;;2.33;2.13;;;;;;;;;;5025126;28;20068;-67
2023/12/14 04:27:37;;;;;;;2.88;2.65;;;;;;;;;;5030833;28;21007;-66
2023/12/14 04:30:04;;;;;;;3.67;3.38;;;;;;;;;;5023556;28;20052;-66
2023/12/14 04:32:29;;;;;;;2.78;2.58;;;;;;;;;;5024580;28;20080;-67
2023/12/14 04:34:55;;;;;;;3.30;3.00;;;;;;;;;;5023378;28;20141;-67
2023/12/14 04:37:20;;;;;;;4.05;3.40;;;;;;;;;;5024841;28;20140;-67
2023/12/14 04:39:46;;;;;;;2.15;1.88;;;;;;;;;;5023878;28;20049;-66
2023/12/14 04:42:11;;;;;;;3.97;3.03;;;;;;;;;;5023229;28;20046;-67
2023/12/14 04:44:37;;;;;;;4.13;3.42;;;;;;;;;;5024655;28;20045;-67
2023/12/14 04:47:02;;;;;;;5.00;3.40;;;;;;;;;;5021437;28;20072;-67
2023/12/14 04:49:27;;;;;;;3.40;3.10;;;;;;;;;;5025440;28;20042;-67
2023/12/14 04:51:53;;;;;;;4.93;3.88;;;;;;;;;;5023762;28;20046;-67
2023/12/14 04:54:18;;;;;;;4.45;3.47;;;;;;;;;;5025268;28;20132;-67
2023/12/14 04:56:47;;;;;;;8.13;4.32;;;;;;;;;;5026525;28;20044;-67
2023/12/14 04:59:12;;;;;;;4.05;3.13;;;;;;;;;;5030575;28;20038;-67
2023/12/14 05:01:38;;;;;;;4.50;4.05;;;;;;;;;;5030176;28;20134;-66
2023/12/14 05:04:03;;;;;;;5.18;4.68;;;;;;;;;;5022576;28;20139;-68
2023/12/14 05:06:29;;;;;;;4.35;3.80;;;;;;;;;;5021936;28;20045;-68
2023/12/14 05:08:55;;;;;;;5.07;4.22;;;;;;;;;;5034344;28;20044;-68
2023/12/14 05:11:20;;;;;;;4.68;4.07;;;;;;;;;;5031862;28;29191;-68
2023/12/14 05:13:46;;;;;;;4.05;3.65;;;;;;;;;;5041624;28;20071;-68
2023/12/14 05:16:14;;;;;;;4.88;4.38;;;;;;;;;;5040731;28;20080;-68
2023/12/14 05:18:40;;;;;;;4.80;3.58;;;;;;;;;;5024622;28;20049;-68
2023/12/14 05:21:05;;;;;;;4.63;3.58;;;;;;;;;;5025142;28;20056;-68
2023/12/14 05:23:34;;;;;;;5.55;3.95;;;;;;;;;;5038020;28;20048;-67
2023/12/14 05:25:59;;;;;;;3.58;3.25;;;;;;;;;;5039881;28;20049;-68
2023/12/14 05:28:25;;;;;;;4.00;3.55;;;;;;;;;;5038787;28;20592;-68
2023/12/14 05:30:50;;;;;;;5.05;4.00;;;;;;;;;;5037295;28;20886;-67
2023/12/14 05:33:15;;;;;;;4.45;3.40;;;;;;;;;;5040140;28;20040;-66
2023/12/14 05:35:41;;;;;;;4.45;3.80;;;;;;;;;;5043814;28;20062;-67
2023/12/14 05:38:06;;;;;;;2.47;2.28;;;;;;;;;;5040902;28;20048;-66
2023/12/14 05:40:32;;;;;;;3.38;3.08;;;;;;;;;;5038638;28;20072;-68
2023/12/14 05:42:57;;;;;;;3.80;3.10;;;;;;;;;;5041394;28;20068;-65
2023/12/14 05:45:23;;;;;;;3.30;3.00;;;;;;;;;;5041016;28;20156;-66
2023/12/14 05:47:48;;;;;;;2.47;2.28;;;;;;;;;;5045411;28;20064;-66
2023/12/14 05:50:14;;;;;;;3.88;2.95;;;;;;;;;;5057977;28;20040;-69
2023/12/14 05:52:40;;;;;;;1.98;1.83;;;;;;;;;;5057692;28;20507;-66
2023/12/14 05:55:10;;;;;;;2.85;2.55;;;;;;;;;;5056376;28;21024;-66
2023/12/14 05:57:35;;;;;;;3.90;2.70;;;;;;;;;;5057247;28;20040;-67
2023/12/14 06:00:01;;;;;;;2.97;2.60;;;;;;;;;;5057085;28;20044;-68
2023/12/14 06:02:26;;;;;;;3.08;2.78;;;;;;;;;;5055511;28;20036;-67
2023/12/14 06:04:51;;;;;;;2.28;2.10;;;;;;;;;;5054933;28;20083;-67
2023/12/14 06:07:17;;;;;;;4.03;2.85;;;;;;;;;;5056268;28;20041;-66
2023/12/14 06:09:43;;;;;;;3.88;3.00;;;;;;;;;;5057678;28;20164;-68
2023/12/14 06:12:08;;;;;;;2.60;2.35;;;;;;;;;;5057051;28;20055;-68
2023/12/14 06:14:35;;;;;;;4.18;2.88;;;;;;;;;;5053573;28;20040;-67
2023/12/14 06:17:00;;;;;;;2.28;2.08;;;;;;;;;;5055932;28;20048;-68
2023/12/14 06:19:25;;;;;;;3.40;3.10;;;;;;;;;;5058015;28;20053;-71
2023/12/14 06:21:51;;;;;;;2.42;2.22;;;;;;;;;;5054923;28;20048;-69
2023/12/14 06:24:17;;;;;;;3.30;2.50;;;;;;;;;;5056751;28;20048;-68
2023/12/14 06:26:46;;;;;;;3.83;3.00;;;;;;;;;;5014381;28;20535;-68
2023/12/14 06:29:12;;;;;;;3.92;2.55;;;;;;;;;;5051687;28;20114;-68
2023/12/14 06:31:38;;;;;;;4.28;3.10;;;;;;;;;;5054729;28;20053;-68
2023/12/14 06:34:04;;;;;;;5.22;2.90;;;;;;;;;;5055876;28;20407;-68
2023/12/14 06:36:30;;;;;;;3.78;2.85;;;;;;;;;;5054256;28;20053;-66
2023/12/14 06:38:57;;;;;;;3.95;3.08;;;;;;;;;;5056335;28;20044;-68
2023/12/14 06:41:23;;;;;;;3.20;2.83;;;;;;;;;;5056742;28;20059;-68
2023/12/14 06:43:49;;;;;;;3.95;3.08;;;;;;;;;;5055911;28;20048;-68
2023/12/14 06:46:15;;;;;;;1.95;1.85;;;;;;;;;;5055197;28;20117;-68
2023/12/14 06:48:40;;;;;;;3.65;3.35;;;;;;;;;;5042955;28;20044;-68
2023/12/14 06:51:06;;;;;;;3.50;3.00;;;;;;;;;;5051733;28;20040;-66
2023/12/14 06:53:31;;;;;;;3.65;3.25;;;;;;;;;;5055959;28;20056;-67
2023/12/14 06:55:57;;;;;;;3.83;3.13;;;;;;;;;;5052783;28;20044;-66
2023/12/14 06:58:22;;;;;;;3.40;2.83;;;;;;;;;;5048806;28;20040;-68
2023/12/14 07:00:47;;;;;;;4.05;3.30;;;;;;;;;;5054538;28;20048;-68
2023/12/14 07:03:13;;;;;;;5.80;3.42;;;;;;;;;;5052428;28;20072;-67
2023/12/14 07:05:39;;;;;;;4.20;3.28;;;;;;;;;;5054901;28;20676;-68
2023/12/14 07:08:04;;;;;;;3.33;2.95;;;;;;;;;;5053637;28;20059;-66
2023/12/14 07:10:30;;;;;;;4.18;3.42;;;;;;;;;;5044586;28;20080;-68
2023/12/14 07:12:56;;;;;;;3.97;3.50;;;;;;;;;;5040443;28;20049;-68
2023/12/14 07:15:21;;;;;;;5.70;3.45;;;;;;;;;;5051188;28;20119;-66
2023/12/14 07:17:47;;;;;;;4.10;2.90;;;;;;;;;;5055222;28;20388;-67
2023/12/14 07:20:12;;;;;;;6.28;2.90;;;;;;;;;;5051730;28;20052;-67
2023/12/14 07:22:38;;;;;;;4.53;3.03;;;;;;;;;;5041786;28;20052;-67
2023/12/14 07:25:04;;;;;;;3.47;2.75;;;;;;;;;;5050020;28;20140;-68
2023/12/14 07:27:29;;;;;;;4.65;3.30;;;;;;;;;;5018463;28;20048;-66
2023/12/14 07:29:55;;;;;;;4.93;3.42;;;;;;;;;;5031703;28;20045;-68
2023/12/14 07:32:21;;;;;;;5.78;3.90;;;;;;;;;;5034814;28;20561;-67
2023/12/14 07:34:47;;;;;;;3.92;3.33;;;;;;;;;;5022275;28;20046;-67
2023/12/14 07:37:13;;;;;;;3.92;3.35;;;;;;;;;;5049543;28;20108;-67
2023/12/14 07:39:38;;;;;;;4.32;3.38;;;;;;;;;;5044518;28;20994;-66
2023/12/14 07:42:05;;;;;;;7.57;4.20;;;;;;;;;;5020213;28;21098;-66
2023/12/14 07:44:30;;;;;;;5.15;3.55;;;;;;;;;;5021319;28;20041;-65
2023/12/14 07:46:56;;;;;;;4.63;3.30;;;;;;;;;;5046045;28;20588;-67
2023/12/14 07:49:23;;;;;;;4.53;3.78;;;;;;;;;;5020706;28;20049;-68
2023/12/14 07:51:49;;;;;;;8.18;4.25;;;;;;;;;;5026276;28;20049;-66
2023/12/14 07:54:15;;;;;;;5.72;4.32;;;;;;;;;;5021790;28;20041;-66
2023/12/14 07:56:40;;;;;;;7.95;4.03;;;;;;;;;;5037759;28;20037;-65
2023/12/14 07:59:07;;;;;;;5.72;3.72;;;;;;;;;;5027864;28;20071;-69
2023/12/14 08:01:33;;;;;;;6.47;3.40;;;;;;;;;;5020885;28;20083;-67
2023/12/14 08:03:59;;;;;;;4.35;3.17;;;;;;;;;;5021861;28;20076;-67
2023/12/14 08:06:25;;;;;;;5.50;3.90;;;;;;;;;;5027221;28;20037;-66
2023/12/14 08:08:51;;;;;;;5.28;3.20;;;;;;;;;;5047833;28;20056;-67
2023/12/14 08:11:16;;;;;;;3.08;2.33;;;;;;;;;;5021987;28;20049;-66
2023/12/14 08:13:42;;;;;;;2.42;2.22;;;;;;;;;;5035294;28;20045;-68
2023/12/14 08:16:08;;;;;;;5.55;3.03;;;;;;;;;;5040208;28;20045;-66
2023/12/14 08:18:33;;;;;;;6.97;3.50;;;;;;;;;;5021229;28;20044;-66
2023/12/14 08:20:59;;;;;;;3.40;2.95;;;;;;;;;;5049949;28;20488;-67
2023/12/14 08:23:27;;;;;;;3.03;2.40;;;;;;;;;;5050487;28;20566;-68
2023/12/14 08:25:56;;;;;;;3.70;2.70;;;;;;;;;;5057544;28;20045;-68
2023/12/14 08:28:22;;;;;;;4.00;2.53;;;;;;;;;;5047969;28;20124;-66
2023/12/14 08:30:48;;;;;;;3.97;3.10;;;;;;;;;;5057485;28;20044;-67
2023/12/14 08:33:13;;;;;;;5.18;3.03;;;;;;;;;;5054667;28;20037;-68
2023/12/14 08:35:39;;;;;;;6.75;2.72;;;;;;;;;;5057165;28;20063;-67
2023/12/14 08:38:04;;;;;;;3.67;2.47;;;;;;;;;;5049078;28;20140;-67
2023/12/14 08:40:30;;;;;;;3.85;2.80;;;;;;;;;;5056366;28;20041;-68
2023/12/14 08:42:56;;;;;;;3.22;2.42;;;;;;;;;;5057304;28;20127;-66
2023/12/14 08:45:22;;;;;;;3.45;2.63;;;;;;;;;;5051893;28;20049;-68
2023/12/14 08:47:47;;;;;;;3.17;2.75;;;;;;;;;;5057193;28;20083;-65
2023/12/14 08:50:13;;;;;;;3.47;2.58;;;;;;;;;;5048069;28;20044;-66
2023/12/14 08:52:38;;;;;;;3.80;2.63;;;;;;;;;;5054281;28;20053;-67
2023/12/14 08:55:04;;;;;;;7.65;2.80;;;;;;;;;;5053451;28;20193;-69
2023/12/14 08:57:30;;;;;;;4.18;2.60;;;;;;;;;;5053883;28;20039;-68
2023/12/14 08:59:56;;;;;;;3.60;2.83;;;;;;;;;;5051130;28;20044;-67
2023/12/14 09:02:22;;;;;;;3.33;3.00;;;;;;;;;;5055034;28;20063;-67
2023/12/14 09:04:47;;;;;;;4.32;2.58;;;;;;;;;;5053930;28;20072;-67
2023/12/14 09:07:12;;;;;;;3.50;2.60;;;;;;;;;;5052993;28;20044;-67
2023/12/14 09:09:38;;;;;;;4.78;2.53;;;;;;;;;;5053362;28;20041;-69
2023/12/14 09:12:04;;;;;;;2.63;2.20;;;;;;;;;;5049762;28;20048;-66
2023/12/14 09:14:30;;;;;;;3.05;2.55;;;;;;;;;;5035962;28;20048;-66
2023/12/14 09:16:55;;;;;;;4.28;2.30;;;;;;;;;;5024631;28;20055;-67
2023/12/14 09:19:21;;;;;;;3.38;2.47;;;;;;;;;;5023450;28;20140;-67
2023/12/14 09:21:46;;;;;;;3.13;2.60;;;;;;;;;;5019573;28;20060;-68
2023/12/14 09:24:12;;;;;;;2.90;2.35;;;;;;;;;;5019988;28;20052;-66
2023/12/14 09:26:37;;;;;;;2.50;2.30;;;;;;;;;;5029970;28;20053;-69
2023/12/14 09:29:03;;;;;;;2.45;2.10;;;;;;;;;;5027862;28;20056;-66
2023/12/14 09:31:29;;;;;;;3.25;2.10;;;;;;;;;;5019404;28;20041;-67
2023/12/14 09:33:54;;;;;;;2.67;2.22;;;;;;;;;;5020280;28;20037;-68
2023/12/14 09:36:19;;;;;;;2.00;1.88;;;;;;;;;;5019511;28;20121;-66
2023/12/14 09:38:45;;;;;;;2.15;1.95;;;;;;;;;;5023625;28;20377;-67
2023/12/14 09:41:11;;;;;;;2.50;2.30;;;;;;;;;;5019016;28;20407;-68
2023/12/14 09:43:37;;;;;;;2.83;1.90;;;;;;;;;;5022077;28;20127;-68
2023/12/14 09:46:03;;;;;;;1.95;1.63;;;;;;;;;;5023052;28;20128;-68
2023/12/14 09:48:29;;;;;;;3.40;2.70;;;;;;;;;;5019347;28;20052;-67
2023/12/14 09:50:55;;;;;;;2.75;2.17;;;;;;;;;;5018724;28;20049;-65
2023/12/14 09:53:20;;;;;;;3.38;2.90;;;;;;;;;;5020936;28;20051;-68
2023/12/14 09:55:46;;;;;;;4.25;2.67;;;;;;;;;;5019335;28;20526;-66
2023/12/14 09:58:12;;;;;;;4.10;2.78;;;;;;;;;;5019548;28;20077;-68
2023/12/14 10:00:40;;;;;;;4.32;2.65;;;;;;;;;;5020138;28;20511;-67
2023/12/14 10:03:27;;;;;;;2.85;2.42;;;;;;;;;;5019412;28;20053;-66
2023/12/14 10:05:53;;;;;;;2.80;2.35;;;;;;;;;;5019461;28;20057;-66
2023/12/14 10:08:19;;;;;;;3.72;2.60;;;;;;;;;;5022318;28;20128;-66
2023/12/14 10:10:48;;;;;;;2.50;2.22;;;;;;;;;;5019469;28;20140;-67
2023/12/14 10:13:14;;;;;;;2.90;2.15;;;;;;;;;;5019847;28;20099;-68
2023/12/14 10:15:41;;;;;;;3.97;2.42;;;;;;;;;;5023611;28;20041;-69
2023/12/14 10:18:06;;;;;;;4.10;2.50;;;;;;;;;;5020146;28;20056;-65
2023/12/14 10:20:32;;;;;;;2.50;1.77;;;;;;;;;;5018536;28;20041;-66
2023/12/14 10:22:57;;;;;;;4.03;2.38;;;;;;;;;;5018726;28;20045;-68
2023/12/14 10:25:22;;;;;;;5.07;2.30;;;;;;;;;;5018094;28;20045;-68
2023/12/14 10:27:50;;;;;;;2.42;2.22;;;;;;;;;;5018089;28;20056;-67
2023/12/14 10:30:16;;;;;;;6.07;2.60;;;;;;;;;;5025607;28;20115;-68
2023/12/14 10:32:42;;;;;;;2.35;1.95;;;;;;;;;;5025463;28;20049;-68
2023/12/14 10:35:08;;;;;;;3.03;2.47;;;;;;;;;;5021230;28;21136;-68
2023/12/14 10:37:37;;;;;;;3.45;2.45;;;;;;;;;;5018547;28;20045;-68
2023/12/14 10:40:05;;;;;;;3.83;2.28;;;;;;;;;;5021812;28;20129;-67
2023/12/14 10:42:34;;;;;;;3.30;2.65;;;;;;;;;;5016823;28;20049;-68
2023/12/14 10:45:02;;;;;;;3.83;2.33;;;;;;;;;;5022781;28;20052;-68
2023/12/14 10:47:27;;;;;;;2.63;2.42;;;;;;;;;;5017590;28;20073;-68
2023/12/14 10:49:54;;;;;;;3.03;2.38;;;;;;;;;;5029419;28;20153;-68
2023/12/14 10:52:22;;;;;;;6.53;2.30;;;;;;;;;;5048791;28;20056;-70
2023/12/14 10:54:52;;;;;;;2.60;2.40;;;;;;;;;;5037506;28;20445;-68
2023/12/14 10:57:17;;;;;;;4.88;2.40;;;;;;;;;;5045710;28;20534;-67
2023/12/14 10:59:43;;;;;;;2.95;2.40;;;;;;;;;;5044418;28;20048;-68
2023/12/14 11:02:09;;;;;;;2.05;1.85;;;;;;;;;;5044464;28;20733;-68
2023/12/14 11:04:58;;;;;;;2.85;2.25;;;;;;;;;;5040124;28;20049;-68
2023/12/14 11:07:42;;;;;;;2.10;1.75;;;;;;;;;;5038064;28;20053;-68
2023/12/14 11:10:09;;;;;;;2.03;1.60;;;;;;;;;;5051670;28;20149;-68
2023/12/14 11:12:34;;;;;;;4.32;1.45;;;;;;;;;;5036718;28;20151;-68
2023/12/14 11:15:00;;;;;;;1.88;1.50;;;;;;;;;;5045160;28;20045;-68
2023/12/14 11:17:26;;;;;;;2.08;1.85;;;;;;;;;;5036511;28;20517;-67
2023/12/14 11:19:53;;;;;;;1.70;0.95;;;;;;;;;;5037411;28;20045;-68
2023/12/14 11:22:29;;;;;;;1.05;1.02;;;;;;;;;;5045065;28;20037;-69
2023/12/14 11:24:55;;;;;;;3.20;1.50;;;;;;;;;;5047387;28;20056;-68
2023/12/14 11:27:27;;;;;;;1.17;1.08;;;;;;;;;;5038468;28;20041;-63
2023/12/14 11:29:53;;;;;;;1.02;0.95;;;;;;;;;;5046402;28;20530;-67
2023/12/14 11:32:19;;;;;;;1.10;0.90;;;;;;;;;;5037684;28;20041;-68
2023/12/14 11:34:48;;;;;;;1.20;1.10;;;;;;;;;;5038701;28;20493;-67
2023/12/14 11:37:13;;;;;;;1.08;1.00;;;;;;;;;;5037469;28;20083;-69
2023/12/14 11:39:40;;;;;;;0.70;0.70;;;;;;;;;;5038120;28;20121;-66
2023/12/14 11:42:10;;;;;;;1.25;1.08;;;;;;;;;;5038017;28;20728;-69
2023/12/14 11:44:40;;;;;;;1.38;1.10;;;;;;;;;;5038367;28;20045;-69
2023/12/14 11:47:06;;;;;;;0.95;0.90;;;;;;;;;;5039282;28;20052;-66
2023/12/14 11:49:32;;;;;;;1.17;1.08;;;;;;;;;;5039774;28;20230;-66
2023/12/14 11:51:57;;;;;;;1.08;0.98;;;;;;;;;;5039693;28;20098;-66
2023/12/14 11:54:22;;;;;;;0.68;0.68;;;;;;;;;;5040202;28;20045;-68
2023/12/14 11:56:49;;;;;;;1.10;0.98;;;;;;;;;;5039608;28;20082;-65
2023/12/14 11:59:20;;;;;;;3.22;1.20;;;;;;;;;;5037480;28;20576;-67
2023/12/14 12:01:59;;;;;;;1.17;1.07;;;;;;;;;;5039761;28;20052;-68
2023/12/14 12:04:26;;;;;;;1.13;1.05;;;;;;;;;;5038286;28;20749;-67
2023/12/14 12:07:04;;;;;;;1.27;1.10;;;;;;;;;;5038789;28;20045;-68
2023/12/14 12:09:43;;;;;;;0.77;0.77;;;;;;;;;;5035142;28;20048;-66
2023/12/14 12:12:10;;;;;;;1.75;0.90;;;;;;;;;;5028029;28;20052;-65
2023/12/14 12:14:36;;;;;;;1.50;1.40;;;;;;;;;;5038814;28;20048;-68
2023/12/14 12:17:04;;;;;;;1.85;1.20;;;;;;;;;;5039831;28;20056;-64
2023/12/14 12:19:34;;;;;;;1.73;1.38;;;;;;;;;;5039040;28;20040;-64
2023/12/14 12:22:00;;;;;;;2.50;1.70;;;;;;;;;;5057960;28;20475;-66
2023/12/14 12:24:25;;;;;;;1.60;1.50;;;;;;;;;;5055518;28;20131;-68
2023/12/14 12:26:51;;;;;;;1.73;1.60;;;;;;;;;;5042586;28;20151;-66
2023/12/14 12:29:16;;;;;;;1.50;1.40;;;;;;;;;;5035789;28;20144;-67
2023/12/14 12:31:42;;;;;;;2.03;1.48;;;;;;;;;;5036288;28;20084;-68
2023/12/14 12:34:08;;;;;;;1.30;1.20;;;;;;;;;;5036644;28;20037;-68
2023/12/14 12:36:34;;;;;;;1.60;1.42;;;;;;;;;;5034663;28;20206;-67
2023/12/14 12:38:59;;;;;;;1.70;1.60;;;;;;;;;;5037660;28;20680;-66
2023/12/14 12:41:25;;;;;;;2.17;1.88;;;;;;;;;;5035655;28;20037;-68
2023/12/14 12:43:50;;;;;;;1.27;1.13;;;;;;;;;;5036981;28;20055;-65
2023/12/14 12:46:15;;;;;;;1.35;1.25;;;;;;;;;;5035338;28;20487;-66
2023/12/14 12:48:41;;;;;;;1.73;1.50;;;;;;;;;;5037759;28;20040;-65
2023/12/14 12:51:06;;;;;;;1.98;1.75;;;;;;;;;;5036851;28;20049;-67
2023/12/14 12:53:33;;;;;;;4.47;1.15;;;;;;;;;;5037271;28;20075;-66
2023/12/14 12:55:58;;;;;;;2.45;1.90;;;;;;;;;;5038088;28;20518;-67
2023/12/14 12:58:24;;;;;;;1.27;0.95;;;;;;;;;;5038056;28;20048;-67
2023/12/14 13:00:49;;;;;;;2.50;1.38;;;;;;;;;;5037239;28;20037;-66
2023/12/14 13:03:15;;;;;;;1.60;1.50;;;;;;;;;;5036498;28;20052;-65
2023/12/14 13:05:40;;;;;;;1.33;1.23;;;;;;;;;;5036395;28;21199;-66
2023/12/14 13:08:06;;;;;;;3.30;1.58;;;;;;;;;;5037773;28;20096;-65
2023/12/14 13:10:32;;;;;;;2.35;1.42;;;;;;;;;;5037301;28;20037;-68
2023/12/14 13:12:58;;;;;;;2.35;1.73;;;;;;;;;;5036918;28;20442;-64
2023/12/14 13:15:25;;;;;;;1.90;1.70;;;;;;;;;;5037088;28;20144;-67
2023/12/14 13:17:50;;;;;;;1.40;1.30;;;;;;;;;;5036827;28;20107;-68
2023/12/14 13:20:16;;;;;;;1.52;1.42;;;;;;;;;;5038353;28;20053;-67
2023/12/14 13:22:41;;;;;;;1.25;1.15;;;;;;;;;;5036649;28;20049;-66
2023/12/14 13:25:07;;;;;;;1.50;1.40;;;;;;;;;;5036407;28;20041;-67
2023/12/14 13:27:32;;;;;;;4.80;1.73;;;;;;;;;;5036568;28;20529;-65
2023/12/14 13:29:57;;;;;;;1.90;1.77;;;;;;;;;;5038491;28;20124;-66
2023/12/14 13:32:23;;;;;;;3.00;1.27;;;;;;;;;;5037794;28;20071;-67
2023/12/14 13:34:48;;;;;;;2.05;1.30;;;;;;;;;;5037834;28;20029;-68
2023/12/14 13:37:14;;;;;;;1.60;1.30;;;;;;;;;;5037683;28;20067;-66
2023/12/14 13:39:39;;;;;;;1.60;1.50;;;;;;;;;;5038569;28;20045;-65
2023/12/14 13:42:08;;;;;;;2.10;1.73;;;;;;;;;;5037668;28;20059;-64
2023/12/14 13:44:37;;;;;;;2.47;1.90;;;;;;;;;;5035355;28;20068;-68
2023/12/14 13:47:04;;;;;;;2.85;1.83;;;;;;;;;;5036727;28;20334;-67
2023/12/14 13:49:29;;;;;;;2.75;2.05;;;;;;;;;;5037863;28;20085;-68
2023/12/14 13:51:54;;;;;;;5.53;2.58;;;;;;;;;;5036075;28;20411;-65
2023/12/14 13:54:20;;;;;;;3.25;2.03;;;;;;;;;;5038002;28;20045;-67
2023/12/14 13:56:48;;;;;;;5.28;1.73;;;;;;;;;;5036802;28;20032;-67
2023/12/14 13:59:13;;;;;;;2.95;1.95;;;;;;;;;;5037274;28;20037;-68
2023/12/14 14:01:38;;;;;;;3.13;1.65;;;;;;;;;;5038073;28;20051;-68
2023/12/14 14:04:04;;;;;;;4.03;2.00;;;;;;;;;;5037321;28;20127;-66
2023/12/14 14:06:38;;;;;;;5.78;1.80;;;;;;;;;;5037827;28;20471;-68
2023/12/14 14:09:04;;;;;;;8.05;2.03;;;;;;;;;;5037224;28;20051;-68
2023/12/14 14:11:29;;;;;;;3.97;2.40;;;;;;;;;;5037325;28;20041;-67
2023/12/14 14:13:55;;;;;;;5.50;2.47;;;;;;;;;;5037303;28;20132;-69
2023/12/14 14:16:20;;;;;;;2.97;2.13;;;;;;;;;;5037997;28;20119;-67
2023/12/14 14:18:46;;;;;;;3.67;2.22;;;;;;;;;;5037668;28;20480;-68
2023/12/14 14:21:11;;;;;;;3.88;2.60;;;;;;;;;;5037097;28;20057;-68
2023/12/14 14:23:37;;;;;;;6.20;2.60;;;;;;;;;;5035552;28;20514;-67
2023/12/14 14:26:03;;;;;;;3.22;1.98;;;;;;;;;;5037566;28;20044;-67
2023/12/14 14:28:28;;;;;;;2.08;1.85;;;;;;;;;;5037272;28;20095;-68
2023/12/14 14:30:54;;;;;;;2.97;1.90;;;;;;;;;;5035909;28;20110;-68
2023/12/14 14:33:19;;;;;;;1.75;1.55;;;;;;;;;;5036631;28;20047;-66
2023/12/14 14:35:45;;;;;;;2.17;1.60;;;;;;;;;;5036995;28;20448;-65